createdAt,value
2023-04-27T00:00:01.164Z,4.30
2023-04-27T00:02:27.929Z,3.95
2023-04-27T00:04:57.205Z,2.78
2023-04-27T00:07:23.898Z,3.45
2023-04-27T00:09:51.855Z,3.60
2023-04-27T00:12:18.261Z,3.40
2023-04-27T00:14:44.827Z,3.42
2023-04-27T00:17:11.302Z,3.25
2023-04-27T00:19:37.792Z,4.20
2023-04-27T00:22:04.302Z,3.42
2023-04-27T00:24:30.935Z,3.30
2023-04-27T00:26:57.748Z,3.58
2023-04-27T00:29:24.461Z,4.88
2023-04-27T00:31:50.971Z,3.85
2023-04-27T00:34:17.526Z,4.85
2023-04-27T00:36:44.001Z,5.20
2023-04-27T00:39:10.529Z,4.40
2023-04-27T00:41:42.049Z,4.72
2023-04-27T00:44:08.649Z,4.33
2023-04-27T00:46:35.382Z,3.80
2023-04-27T00:49:04.922Z,3.35
2023-04-27T00:51:32.177Z,3.25
2023-04-27T00:53:59.886Z,3.22
2023-04-27T00:56:26.340Z,3.95
2023-04-27T00:58:55.700Z,5.28
2023-04-27T01:01:24.407Z,4.10
2023-04-27T01:03:53.236Z,3.30
2023-04-27T01:06:19.884Z,2.92
2023-04-27T01:08:48.531Z,2.35
2023-04-27T01:11:14.875Z,2.67
2023-04-27T01:13:41.459Z,2.38
2023-04-27T01:16:07.921Z,2.88
2023-04-27T01:18:35.043Z,2.92
2023-04-27T01:21:01.576Z,3.20
2023-04-27T01:23:32.799Z,2.60
2023-04-27T01:25:59.323Z,2.95
2023-04-27T01:28:27.947Z,3.28
2023-04-27T01:30:54.461Z,3.08
2023-04-27T01:33:24.109Z,2.78
2023-04-27T01:35:51.027Z,2.67
2023-04-27T01:38:18.007Z,3.47
2023-04-27T01:40:44.465Z,3.35
2023-04-27T01:43:11.514Z,2.55
2023-04-27T01:45:37.962Z,2.85
2023-04-27T01:48:04.705Z,2.47
2023-04-27T01:50:31.280Z,3.05
2023-04-27T01:53:00.006Z,2.47
2023-04-27T01:58:15.329Z,3.13
2023-04-27T02:00:41.760Z,3.38
2023-04-27T02:05:54.695Z,2.90
2023-04-27T02:08:21.228Z,4.00
2023-04-27T02:10:47.633Z,2.72
2023-04-27T02:13:14.438Z,2.80
2023-04-27T02:15:41.012Z,3.45
2023-04-27T02:18:07.493Z,3.72
2023-04-27T02:20:34.064Z,3.88
2023-04-27T02:23:01.770Z,2.83
2023-04-27T02:25:30.840Z,4.00
2023-04-27T02:28:34.909Z,2.90
2023-04-27T02:31:39.417Z,3.05
2023-04-27T02:34:44.634Z,3.10
2023-04-27T02:37:11.138Z,3.45
2023-04-27T02:39:37.517Z,3.33
2023-04-27T02:42:43.838Z,3.33
2023-04-27T02:45:10.531Z,3.55
2023-04-27T02:47:55.710Z,3.08
2023-04-27T02:50:22.190Z,2.83
2023-04-27T02:52:48.570Z,4.00
2023-04-27T02:55:16.406Z,3.63
2023-04-27T02:57:43.174Z,2.83
2023-04-27T03:00:10.979Z,3.75
2023-04-27T03:03:14.993Z,3.97
2023-04-27T03:06:00.351Z,3.45
2023-04-27T03:08:26.731Z,4.15
2023-04-27T03:11:30.839Z,3.60
2023-04-27T03:14:54.085Z,2.80
2023-04-27T03:17:58.110Z,3.17
2023-04-27T03:20:43.426Z,3.72
2023-04-27T03:23:09.820Z,4.35
2023-04-27T03:25:36.369Z,3.65
2023-04-27T03:28:03.077Z,3.80
2023-04-27T03:30:29.529Z,3.17
2023-04-27T03:32:56.488Z,4.22
2023-04-27T03:35:23.028Z,4.65
2023-04-27T03:37:49.483Z,4.43
2023-04-27T03:40:15.996Z,4.45
2023-04-27T03:42:43.766Z,5.10
2023-04-27T03:45:12.151Z,5.30
2023-04-27T03:47:38.860Z,3.95
2023-04-27T03:50:05.648Z,2.70
2023-04-27T03:52:34.312Z,4.57
2023-04-27T03:55:00.888Z,4.43
2023-04-27T03:57:29.523Z,4.80
2023-04-27T03:59:58.716Z,3.72
2023-04-27T04:02:25.320Z,2.30
2023-04-27T04:04:51.869Z,4.50
2023-04-27T04:07:18.310Z,3.40
2023-04-27T04:09:44.888Z,3.92
2023-04-27T04:12:11.307Z,4.15
2023-04-27T04:14:37.816Z,4.10
2023-04-27T04:17:04.222Z,4.60
2023-04-27T04:19:30.793Z,4.05
2023-04-27T04:21:57.809Z,3.95
2023-04-27T04:24:24.310Z,4.07
2023-04-27T04:26:50.785Z,4.47
2023-04-27T04:29:17.213Z,4.68
2023-04-27T04:31:43.689Z,3.35
2023-04-27T04:34:11.031Z,4.40
2023-04-27T04:36:40.539Z,4.05
2023-04-27T04:39:07.193Z,3.72
2023-04-27T04:41:33.632Z,3.53
2023-04-27T04:44:00.611Z,3.95
2023-04-27T04:46:27.112Z,4.25
2023-04-27T04:48:54.697Z,4.97
2023-04-27T04:51:21.371Z,4.85
2023-04-27T04:53:47.756Z,4.35
2023-04-27T04:56:15.015Z,3.10
2023-04-27T04:58:44.023Z,4.13
2023-04-27T05:01:10.778Z,4.43
2023-04-27T05:03:37.439Z,4.60
2023-04-27T05:06:04.138Z,3.30
2023-04-27T05:08:30.782Z,3.50
2023-04-27T05:10:57.265Z,3.58
2023-04-27T05:13:24.814Z,4.22
2023-04-27T05:15:56.178Z,2.97
2023-04-27T05:18:23.520Z,3.23
2023-04-27T05:20:49.926Z,3.88
2023-04-27T05:23:16.629Z,2.95
2023-04-27T05:25:43.159Z,3.95
2023-04-27T05:28:12.769Z,3.03
2023-04-27T05:30:39.323Z,2.70
2023-04-27T05:33:06.400Z,3.28
2023-04-27T05:35:33.492Z,2.30
2023-04-27T05:38:00.342Z,3.60
2023-04-27T05:40:27.506Z,2.78
2023-04-27T05:42:54.141Z,2.95
2023-04-27T05:45:21.660Z,3.63
2023-04-27T05:47:48.239Z,2.72
2023-04-27T05:50:14.626Z,3.03
2023-04-27T05:52:41.182Z,2.92
2023-04-27T05:55:08.318Z,3.22
2023-04-27T05:57:37.846Z,3.15
2023-04-27T06:00:10.516Z,2.80
2023-04-27T06:02:36.993Z,3.13
2023-04-27T06:05:07.052Z,2.58
2023-04-27T06:07:34.182Z,3.20
2023-04-27T06:10:03.256Z,2.63
2023-04-27T06:12:32.449Z,3.55
2023-04-27T06:14:58.899Z,3.88
2023-04-27T06:17:28.544Z,3.33
2023-04-27T06:19:54.918Z,3.17
2023-04-27T06:22:21.383Z,3.08
2023-04-27T06:24:47.828Z,3.40
2023-04-27T06:27:14.224Z,3.78
2023-04-27T06:29:45.887Z,3.22
2023-04-27T06:32:12.291Z,3.28
2023-04-27T06:34:38.681Z,3.25
2023-04-27T06:37:09.717Z,3.40
2023-04-27T06:39:36.923Z,2.97
2023-04-27T06:42:05.959Z,3.35
2023-04-27T06:44:37.641Z,3.30
2023-04-27T06:47:06.557Z,3.50
2023-04-27T06:49:33.007Z,2.70
2023-04-27T06:52:02.007Z,2.58
2023-04-27T06:54:30.679Z,2.83
2023-04-27T06:56:57.044Z,3.13
2023-04-27T06:59:26.543Z,3.80
2023-04-27T07:01:55.536Z,3.65
2023-04-27T07:04:22.164Z,3.60
2023-04-27T07:06:48.855Z,3.83
2023-04-27T07:09:26.553Z,4.40
2023-04-27T07:11:54.102Z,4.03
2023-04-27T07:14:20.922Z,3.75
2023-04-27T07:16:47.334Z,4.88
2023-04-27T07:19:16.698Z,4.10
2023-04-27T07:21:45.639Z,4.57
2023-04-27T07:24:12.117Z,4.90
2023-04-27T07:26:41.479Z,5.00
2023-04-27T07:29:25.439Z,3.33
2023-04-27T07:31:55.208Z,3.30
2023-04-27T07:34:21.861Z,2.85
2023-04-27T07:36:48.213Z,3.75
2023-04-27T07:39:17.200Z,3.30
2023-04-27T07:41:43.677Z,3.05
2023-04-27T07:44:10.316Z,2.88
2023-04-27T07:46:38.494Z,3.45
2023-04-27T07:49:06.667Z,2.55
2023-04-27T07:51:34.567Z,3.08
2023-04-27T07:54:02.919Z,2.55
2023-04-27T07:56:29.415Z,2.83
2023-04-27T07:58:56.159Z,3.03
2023-04-27T08:01:23.156Z,3.25
2023-04-27T08:03:51.954Z,3.10
2023-04-27T08:06:19.761Z,2.95
2023-04-27T08:08:48.005Z,3.40
2023-04-27T08:11:14.409Z,3.05
2023-04-27T08:13:41.280Z,3.33
2023-04-27T08:16:07.824Z,3.60
2023-04-27T08:18:34.503Z,3.03
2023-04-27T08:21:01.006Z,3.22
2023-04-27T08:23:28.419Z,3.13
2023-04-27T08:25:55.085Z,2.50
2023-04-27T08:28:23.865Z,2.63
2023-04-27T08:30:51.747Z,2.60
2023-04-27T08:33:18.145Z,2.67
2023-04-27T08:35:44.530Z,2.72
2023-04-27T08:38:10.954Z,2.90
2023-04-27T08:40:42.828Z,2.90
2023-04-27T08:43:09.324Z,2.88
2023-04-27T08:45:36.017Z,2.42
2023-04-27T08:48:02.535Z,3.00
2023-04-27T08:50:29.864Z,3.38
2023-04-27T08:52:56.400Z,2.67
2023-04-27T08:55:23.586Z,3.00
2023-04-27T08:57:58.370Z,3.40
2023-04-27T09:00:26.225Z,3.40
2023-04-27T09:02:53.008Z,3.10
2023-04-27T09:05:24.066Z,3.03
2023-04-27T09:08:00.829Z,2.35
2023-04-27T09:10:29.851Z,3.08
2023-04-27T09:13:00.953Z,3.58
2023-04-27T09:15:28.812Z,2.63
2023-04-27T09:17:56.786Z,3.35
2023-04-27T09:20:23.763Z,3.10
2023-04-27T09:22:55.099Z,2.85
2023-04-27T09:25:30.187Z,2.85
2023-04-27T09:27:58.483Z,3.53
2023-04-27T09:30:26.153Z,3.25
2023-04-27T09:33:04.007Z,3.08
2023-04-27T09:35:32.788Z,2.75
2023-04-27T09:38:00.775Z,2.88
2023-04-27T09:40:29.799Z,3.15
2023-04-27T09:43:01.013Z,3.33
2023-04-27T09:45:27.562Z,3.42
2023-04-27T09:47:54.556Z,2.60
2023-04-27T09:50:21.997Z,3.10
2023-04-27T09:52:50.912Z,4.32
2023-04-27T09:55:29.575Z,3.00
2023-04-27T09:58:09.396Z,3.28
2023-04-27T10:00:47.969Z,2.80
2023-04-27T10:03:28.212Z,3.00
2023-04-27T10:06:51.508Z,3.28
2023-04-27T10:09:24.235Z,3.35
2023-04-27T10:11:52.464Z,3.13
2023-04-27T10:14:21.375Z,3.40
2023-04-27T10:16:53.231Z,2.97
2023-04-27T10:19:21.205Z,2.90
2023-04-27T10:22:09.314Z,3.30
2023-04-27T10:24:36.908Z,3.20
2023-04-27T10:27:12.645Z,3.00
2023-04-27T10:29:43.285Z,3.53
2023-04-27T10:32:23.224Z,2.85
2023-04-27T10:35:04.252Z,2.72
2023-04-27T10:37:42.129Z,3.55
2023-04-27T10:40:17.602Z,3.35
2023-04-27T10:42:49.542Z,2.83
2023-04-27T10:45:30.939Z,2.88
2023-04-27T10:48:01.276Z,2.85
2023-04-27T10:50:28.142Z,2.30
2023-04-27T10:52:54.622Z,3.15
2023-04-27T10:55:22.834Z,2.53
2023-04-27T10:57:51.759Z,2.60
2023-04-27T11:00:25.405Z,2.58
2023-04-27T11:03:09.392Z,2.90
2023-04-27T11:05:36.915Z,2.80
2023-04-27T11:08:11.077Z,2.92
2023-04-27T11:10:43.822Z,3.72
2023-04-27T11:13:15.231Z,2.92
2023-04-27T11:15:54.495Z,2.67
2023-04-27T11:18:23.662Z,2.67
2023-04-27T11:20:52.353Z,2.60
2023-04-27T11:23:24.532Z,3.42
2023-04-27T11:25:51.220Z,2.20
2023-04-27T11:28:21.977Z,2.95
2023-04-27T11:30:56.619Z,2.58
2023-04-27T11:33:22.996Z,2.70
2023-04-27T11:35:49.398Z,3.50
2023-04-27T11:38:17.664Z,2.45
2023-04-27T11:40:58.736Z,2.47
2023-04-27T11:43:28.556Z,2.25
2023-04-27T11:45:58.853Z,2.67
2023-04-27T11:48:31.623Z,2.83
2023-04-27T11:51:01.848Z,2.65
2023-04-27T11:53:38.334Z,3.00
2023-04-27T11:56:07.868Z,2.78
2023-04-27T11:58:36.158Z,2.20
2023-04-27T12:01:04.292Z,2.53
2023-04-27T12:03:33.970Z,2.80
2023-04-27T12:06:16.110Z,2.97
2023-04-27T12:08:47.408Z,3.58
2023-04-27T12:11:14.000Z,2.30
2023-04-27T12:13:40.775Z,2.63
2023-04-27T12:16:07.907Z,2.88
2023-04-27T12:18:34.313Z,2.28
2023-04-27T12:21:02.924Z,2.90
2023-04-27T12:23:32.886Z,2.63
2023-04-27T12:25:59.535Z,1.83
2023-04-27T12:28:26.178Z,1.90
2023-04-27T12:30:52.748Z,2.53
2023-04-27T12:33:19.290Z,1.90
2023-04-27T12:35:45.734Z,2.40
2023-04-27T12:38:14.536Z,2.00
2023-04-27T12:40:40.922Z,1.70
2023-04-27T12:43:09.316Z,1.95
2023-04-27T12:45:35.728Z,1.55
2023-04-27T12:48:04.875Z,2.33
2023-04-27T12:50:38.084Z,2.42
2023-04-27T12:53:04.551Z,1.80
2023-04-27T12:55:33.893Z,1.90
2023-04-27T12:58:01.434Z,1.60
2023-04-27T13:00:29.366Z,1.98
2023-04-27T13:02:56.865Z,2.25
2023-04-27T13:05:26.436Z,1.50
2023-04-27T13:07:53.008Z,1.40
2023-04-27T13:10:19.384Z,1.42
2023-04-27T13:12:48.702Z,1.70
2023-04-27T13:15:15.079Z,1.60
2023-04-27T13:17:43.728Z,1.50
2023-04-27T13:20:11.706Z,2.22
2023-04-27T13:22:40.527Z,2.17
2023-04-27T13:25:07.266Z,2.65
2023-04-27T13:27:33.775Z,2.05
2023-04-27T13:30:00.361Z,2.15
2023-04-27T13:32:28.090Z,1.75
2023-04-27T13:34:54.527Z,1.50
2023-04-27T13:37:21.850Z,1.80
2023-04-27T13:39:48.219Z,1.88
2023-04-27T13:42:14.646Z,1.77
2023-04-27T13:44:41.371Z,1.98
2023-04-27T13:47:08.074Z,1.83
2023-04-27T13:49:34.699Z,1.40
2023-04-27T13:52:01.594Z,1.95
2023-04-27T13:54:28.582Z,1.77
2023-04-27T13:56:56.218Z,1.65
2023-04-27T13:59:22.733Z,1.15
2023-04-27T14:01:51.396Z,1.65
2023-04-27T14:04:19.073Z,1.80
2023-04-27T14:06:45.733Z,2.20
2023-04-27T14:09:12.353Z,1.45
2023-04-27T14:11:52.360Z,2.15
2023-04-27T14:14:24.927Z,1.90
2023-04-27T14:16:54.612Z,1.65
2023-04-27T14:19:23.316Z,1.60
2023-04-27T14:21:50.156Z,1.40
2023-04-27T14:24:16.683Z,1.15
2023-04-27T14:26:47.465Z,1.65
2023-04-27T14:29:14.331Z,1.27
2023-04-27T14:31:41.661Z,1.20
2023-04-27T14:34:08.441Z,1.30
2023-04-27T14:36:34.863Z,1.35
2023-04-27T14:39:05.102Z,1.30
2023-04-27T14:41:31.625Z,1.17
2023-04-27T14:43:58.091Z,1.38
2023-04-27T14:46:24.559Z,1.30
2023-04-27T14:48:51.285Z,1.25
2023-04-27T14:51:17.880Z,1.40
2023-04-27T14:53:44.509Z,1.17
2023-04-27T14:56:11.665Z,1.15
2023-04-27T14:58:38.722Z,1.10
2023-04-27T15:01:06.099Z,1.05
2023-04-27T15:03:33.198Z,1.48
2023-04-27T15:06:00.780Z,1.20
2023-04-27T15:08:31.310Z,1.30
2023-04-27T15:10:59.968Z,1.33
2023-04-27T15:13:27.479Z,1.52
2023-04-27T15:16:04.854Z,1.33
2023-04-27T15:18:31.974Z,1.10
2023-04-27T15:20:59.629Z,1.25
2023-04-27T15:23:27.857Z,1.45
2023-04-27T15:25:58.337Z,1.77
2023-04-27T15:28:25.120Z,1.63
2023-04-27T15:30:54.869Z,1.35
2023-04-27T15:33:21.275Z,1.40
2023-04-27T15:35:47.768Z,1.60
2023-04-27T15:38:15.102Z,1.08
2023-04-27T15:40:44.854Z,1.38
2023-04-27T15:43:16.395Z,1.20
2023-04-27T15:45:44.037Z,1.50
2023-04-27T15:48:12.077Z,1.67
2023-04-27T15:50:41.049Z,1.50
2023-04-27T15:53:07.435Z,1.50
2023-04-27T15:55:33.834Z,1.50
2023-04-27T15:58:03.390Z,1.30
2023-04-27T16:00:31.968Z,1.30
2023-04-27T16:03:00.745Z,1.77
2023-04-27T16:05:27.801Z,1.33
2023-04-27T16:07:56.647Z,1.30
2023-04-27T16:10:25.613Z,1.58
2023-04-27T16:12:52.108Z,1.50
2023-04-27T16:15:18.600Z,1.52
2023-04-27T16:17:47.589Z,2.60
2023-04-27T16:20:14.178Z,1.95
2023-04-27T16:22:40.652Z,1.77
2023-04-27T16:25:10.664Z,1.63
2023-04-27T16:27:39.094Z,1.63
2023-04-27T16:30:06.880Z,1.92
2023-04-27T16:32:35.382Z,1.48
2023-04-27T16:35:02.338Z,1.55
2023-04-27T16:37:28.822Z,1.83
2023-04-27T16:39:59.092Z,1.52
2023-04-27T16:42:25.724Z,1.50
2023-04-27T16:44:52.217Z,1.63
2023-04-27T16:47:18.595Z,1.25
2023-04-27T16:49:45.041Z,0.93
2023-04-27T16:52:11.934Z,1.35
2023-04-27T16:54:38.418Z,1.35
2023-04-27T16:57:04.903Z,1.77
2023-04-27T16:59:31.441Z,1.05
2023-04-27T17:02:01.740Z,1.25
2023-04-27T17:04:40.031Z,1.38
2023-04-27T17:07:09.307Z,2.17
2023-04-27T17:09:36.829Z,1.52
2023-04-27T17:12:10.962Z,1.75
2023-04-27T17:14:38.465Z,1.83
2023-04-27T17:17:06.255Z,1.27
2023-04-27T17:19:32.745Z,1.40
2023-04-27T17:22:01.459Z,1.63
2023-04-27T17:24:28.094Z,1.92
2023-04-27T17:26:54.988Z,1.58
2023-04-27T17:29:21.738Z,1.90
2023-04-27T17:31:50.026Z,1.58
2023-04-27T17:34:16.451Z,1.63
2023-04-27T17:36:42.909Z,1.60
2023-04-27T17:39:12.769Z,1.83
2023-04-27T17:41:39.759Z,1.23
2023-04-27T17:44:06.369Z,1.30
2023-04-27T17:46:33.110Z,1.90
2023-04-27T17:49:02.302Z,1.55
2023-04-27T17:51:28.723Z,1.25
2023-04-27T17:53:55.551Z,1.77
2023-04-27T17:56:22.554Z,2.22
2023-04-27T17:58:48.977Z,1.60
2023-04-27T18:01:15.510Z,1.30
2023-04-27T18:03:42.356Z,1.55
2023-04-27T18:06:09.178Z,1.52
2023-04-27T18:08:35.645Z,1.50
2023-04-27T18:11:02.164Z,1.85
2023-04-27T18:13:28.653Z,1.98
2023-04-27T18:15:55.035Z,1.58
2023-04-27T18:18:25.356Z,1.58
2023-04-27T18:20:52.248Z,1.35
2023-04-27T18:23:18.720Z,1.40
2023-04-27T18:25:45.364Z,1.80
2023-04-27T18:28:11.839Z,1.63
2023-04-27T18:30:40.665Z,2.10
2023-04-27T18:33:07.454Z,2.05
2023-04-27T18:35:34.188Z,1.67
2023-04-27T18:38:00.783Z,2.42
2023-04-27T18:40:27.239Z,4.65
2023-04-27T18:42:55.966Z,3.13
2023-04-27T18:45:22.633Z,3.03
2023-04-27T18:47:49.289Z,2.72
2023-04-27T18:50:17.612Z,2.90
2023-04-27T18:52:44.013Z,2.13
2023-04-27T18:55:13.949Z,2.30
2023-04-27T18:57:40.334Z,1.80
2023-04-27T19:00:14.015Z,2.05
2023-04-27T19:02:40.686Z,2.00
2023-04-27T19:05:13.445Z,2.97
2023-04-27T19:07:44.445Z,7.97
2023-04-27T19:10:11.726Z,5.70
2023-04-27T19:12:38.331Z,7.60
2023-04-27T19:15:05.379Z,8.00
2023-04-27T19:17:34.897Z,7.35
2023-04-27T19:20:01.493Z,5.00
2023-04-27T19:22:29.310Z,5.25
2023-04-27T19:24:56.062Z,3.67
2023-04-27T19:27:22.441Z,3.10
2023-04-27T19:29:53.615Z,3.20
2023-04-27T19:32:21.187Z,2.50
2023-04-27T19:34:48.610Z,2.20
2023-04-27T19:37:17.468Z,2.10
2023-04-27T19:39:44.010Z,2.92
2023-04-27T19:42:10.580Z,3.55
2023-04-27T19:44:39.405Z,3.25
2023-04-27T19:47:10.759Z,2.85
2023-04-27T19:49:38.008Z,4.23
2023-04-27T19:52:05.422Z,3.50
2023-04-27T19:54:31.833Z,3.10
2023-04-27T19:56:58.276Z,2.55
2023-04-27T19:59:24.781Z,2.45
2023-04-27T20:01:51.312Z,3.25
2023-04-27T20:04:18.739Z,4.80
2023-04-27T20:10:45.389Z,3.60
2023-04-27T20:13:11.979Z,2.60
2023-04-27T20:22:05.527Z,2.80
2023-04-27T20:25:28.484Z,2.40
2023-04-27T20:27:54.848Z,4.00
2023-04-27T20:30:21.319Z,4.22
2023-04-27T20:33:44.587Z,4.40
2023-04-27T20:36:17.176Z,6.18
2023-04-27T20:38:45.459Z,5.18
2023-04-27T20:41:30.898Z,5.47
2023-04-27T20:43:58.503Z,7.28
2023-04-27T20:46:24.882Z,7.28
2023-04-27T20:48:51.270Z,8.90
2023-04-27T20:55:38.172Z,8.57
2023-04-27T21:01:45.777Z,8.90
2023-04-27T21:04:50.535Z,7.20
2023-04-27T21:10:57.978Z,10.90
2023-04-27T21:13:24.712Z,7.38
2023-04-27T21:15:51.118Z,5.00
2023-04-27T21:18:54.904Z,4.45
2023-04-27T21:21:22.099Z,3.15
2023-04-27T21:24:08.577Z,2.60
2023-04-27T21:26:35.078Z,1.98
2023-04-27T21:29:58.290Z,3.42
2023-04-27T21:35:47.296Z,2.60
2023-04-27T21:38:13.665Z,2.20
2023-04-27T21:41:18.298Z,1.58
2023-04-27T21:43:45.020Z,2.08
2023-04-27T21:46:30.958Z,2.30
2023-04-27T21:49:16.394Z,2.38
2023-04-27T21:52:01.541Z,3.08
2023-04-27T21:54:27.981Z,3.28
2023-04-27T21:56:54.476Z,3.13
2023-04-27T21:59:40.401Z,3.42
2023-04-27T22:02:44.393Z,3.67
2023-04-27T22:05:29.618Z,2.60
2023-04-27T22:07:57.755Z,3.15
2023-04-27T22:10:24.224Z,2.92
2023-04-27T22:13:19.013Z,2.47
2023-04-27T22:16:05.030Z,2.08
2023-04-27T22:19:28.248Z,2.17
2023-04-27T22:24:21.165Z,2.38
2023-04-27T22:26:49.230Z,2.13
2023-04-27T22:29:16.239Z,2.13
2023-04-27T22:31:44.310Z,2.25
2023-04-27T22:34:14.137Z,2.60
2023-04-27T22:36:41.263Z,2.60
2023-04-27T22:39:08.155Z,2.90
2023-04-27T22:41:34.620Z,2.38
2023-04-27T22:44:01.181Z,2.38
2023-04-27T22:46:27.817Z,2.70
2023-04-27T22:48:59.863Z,2.60
2023-04-27T22:51:27.543Z,2.42
2023-04-27T22:53:58.950Z,1.80
2023-04-27T22:56:26.661Z,1.73
2023-04-27T22:58:55.532Z,1.63
2023-04-27T23:01:24.292Z,1.30
2023-04-27T23:03:52.354Z,1.92
2023-04-27T23:06:18.833Z,1.08
2023-04-27T23:08:46.943Z,1.30
2023-04-27T23:11:13.825Z,1.25
2023-04-27T23:13:40.362Z,1.38
2023-04-27T23:16:07.055Z,1.50
2023-04-27T23:18:33.718Z,1.50
2023-04-27T23:21:00.134Z,1.50
2023-04-27T23:23:26.636Z,1.20
2023-04-27T23:25:53.213Z,1.20
2023-04-27T23:28:20.750Z,1.15
2023-04-27T23:30:56.119Z,1.55
2023-04-27T23:33:22.691Z,1.42
2023-04-27T23:35:49.109Z,1.38
2023-04-27T23:38:15.492Z,1.58
2023-04-27T23:40:41.956Z,0.90
2023-04-27T23:43:13.271Z,1.55
2023-04-27T23:45:39.668Z,1.13
2023-04-27T23:48:06.591Z,1.38
2023-04-27T23:50:35.745Z,1.83
2023-04-27T23:53:03.292Z,1.65
2023-04-27T23:55:29.678Z,1.70
2023-04-27T23:57:56.279Z,2.83
